Time;durP1;ratioP1;P1;durP2;ratioP2;P2;SDS_P1;SDS_P2;PMS_P1;PMS_P2;Temp;Humidity;BMP_temperature;BMP_pressure;BME280_temperature;BME280_humidity;BME280_pressure;Samples;Min_cycle;Max_cycle;Signal;HPM_P1;HPM_P2
2021/08/31 13:45:33;;;;;;;;;18.40;18.40;;;;;35.29;34.88;100588.97;5141856;27;13428;-87
2021/08/31 13:48:01;;;;;;;;;18.60;18.60;;;;;35.09;34.86;100575.41;5091443;28;8897;-87
2021/08/31 13:50:29;;;;;;;;;19.20;19.20;;;;;34.88;35.38;100585.28;5090406;28;8901;-87
2021/08/31 13:52:56;;;;;;;;;33.20;31.00;;;;;34.78;36.27;100578.91;5124556;28;8851;-86
2021/08/31 13:55:24;;;;;;;;;34.80;31.60;;;;;35.08;36.19;100585.31;5090689;28;8843;-86
2021/08/31 13:57:52;;;;;;;;;27.40;27.40;;;;;34.97;36.59;100582.31;5091306;28;8832;-88
2021/08/31 14:00:20;;;;;;;;;20.20;20.20;;;;;35.14;35.66;100573.13;5092470;28;8951;-84
2021/08/31 14:02:48;;;;;;;;;16.80;16.80;;;;;34.96;34.93;100574.97;5091248;28;8859;-85
2021/08/31 14:05:15;;;;;;;;;16.00;16.00;;;;;34.61;34.59;100572.16;5108981;28;8847;-79
2021/08/31 14:07:44;;;;;;;;;16.80;16.80;;;;;34.83;34.99;100565.91;5096883;28;9683;-84
2021/08/31 14:10:27;;;;;;;;;18.20;18.20;;;;;34.52;35.00;100558.72;5094513;28;8840;-84
2021/08/31 14:13:06;;;;;;;;;16.60;16.60;;;;;34.13;35.74;100560.22;5105263;28;8875;-86
2021/08/31 14:15:45;;;;;;;;;22.20;22.20;;;;;33.90;36.59;100562.72;5105815;28;8840;-84
2021/08/31 14:18:26;;;;;;;;;22.00;22.00;;;;;33.75;36.82;100564.78;5105723;28;9530;-88
2021/08/31 14:21:04;;;;;;;;;19.40;19.40;;;;;33.90;36.69;100565.59;5092631;28;8832;-90
2021/08/31 14:23:32;;;;;;;;;20.60;20.60;;;;;33.58;37.60;100566.53;5091371;28;8871;-90
2021/08/31 14:26:00;;;;;;;;;19.80;19.80;;;;;33.42;37.14;100567.81;5074648;28;8871;-91
2021/08/31 14:28:29;;;;;;;;;24.60;24.60;;;;;33.01;38.47;100566.72;5091709;28;8856;-91
2021/08/31 14:30:57;;;;;;;;;25.60;25.60;;;;;32.94;39.28;100562.16;5109748;28;8856;-93
2021/08/31 14:33:25;;;;;;;;;23.00;23.00;;;;;32.76;39.57;100563.06;5092164;28;8946;-90
2021/08/31 14:36:04;;;;;;;;;25.60;25.60;;;;;32.31;39.96;100573.50;5088953;28;8847;-86
2021/08/31 14:38:32;;;;;;;;;30.00;28.80;;;;;32.12;39.62;100571.97;5106831;28;8963;-78
2021/08/31 14:40:59;;;;;;;;;21.00;21.00;;;;;32.27;40.10;100566.34;5089695;28;8831;-80
2021/08/31 14:43:27;;;;;;;;;22.00;22.00;;;;;32.05;40.57;100560.88;5089676;28;9030;-80
2021/08/31 14:45:54;;;;;;;;;25.60;24.80;;;;;31.94;40.96;100566.34;5078727;28;8856;-80
2021/08/31 14:48:22;;;;;;;;;28.40;28.20;;;;;31.78;41.38;100565.44;5075895;28;8844;-80
2021/08/31 14:50:52;;;;;;;;;26.60;26.60;;;;;31.75;41.32;100566.38;5076085;28;8836;-80
2021/08/31 14:53:20;;;;;;;;;31.40;30.20;;;;;31.65;42.01;100564.78;5075604;28;8938;-80
2021/08/31 14:55:47;;;;;;;;;27.60;26.60;;;;;31.60;42.16;100562.59;5075713;28;8848;-80
2021/08/31 14:58:15;;;;;;;;;29.20;28.80;;;;;31.40;42.54;100562.31;5077210;28;8844;-80
2021/08/31 15:00:43;;;;;;;;;26.80;26.80;;;;;31.07;42.93;100562.16;5076871;28;9042;-81
2021/08/31 15:03:11;;;;;;;;;27.20;27.20;;;;;31.04;42.95;100566.72;5076070;28;8945;-80
2021/08/31 15:05:39;;;;;;;;;22.40;22.00;;;;;31.09;43.23;100554.69;5078297;28;8844;-79
2021/08/31 15:08:08;;;;;;;;;30.80;27.20;;;;;31.00;42.84;100561.19;5075737;28;8852;-80
2021/08/31 15:10:36;;;;;;;;;29.80;29.00;;;;;30.84;42.99;100555.00;5075652;28;8888;-79
2021/08/31 15:13:24;;;;;;;;;33.20;30.80;;;;;30.87;43.48;100546.28;5104640;28;8944;-87
2021/08/31 15:15:52;;;;;;;;;25.40;25.20;;;;;30.45;43.34;100543.19;5085361;28;8848;-87
2021/08/31 15:18:19;;;;;;;;;31.40;30.40;;;;;30.40;44.24;100538.88;5093983;28;8855;-88
2021/08/31 15:20:47;;;;;;;;;30.20;27.80;;;;;30.46;44.50;100539.06;5075384;28;8852;-80
2021/08/31 15:23:45;;;;;;;;;27.00;27.00;;;;;30.55;45.01;100544.00;5076257;28;8971;-81
2021/08/31 15:26:41;;;;;;;;;37.60;33.40;;;;;30.51;44.17;100540.47;5080890;28;8827;-80
2021/08/31 15:29:37;;;;;;;;;34.80;31.40;;;;;30.56;45.06;100540.66;5072881;28;8893;-80
2021/08/31 15:32:33;;;;;;;;;31.80;30.40;;;;;30.43;45.54;100539.97;5073984;28;8882;-82
2021/08/31 15:35:29;;;;;;;;;37.00;32.60;;;;;30.34;45.45;100545.66;5074893;28;8974;-81
2021/08/31 15:38:26;;;;;;;;;33.80;31.40;;;;;30.13;46.17;100545.28;5075280;28;8844;-82
2021/08/31 15:41:22;;;;;;;;;30.40;29.00;;;;;30.14;48.03;100541.19;5073188;28;8852;-84
2021/08/31 15:44:18;;;;;;;;;31.20;30.20;;;;;29.89;47.75;100547.06;5073199;28;8884;-84
2021/08/31 15:47:13;;;;;;;;;32.60;29.80;;;;;29.89;48.32;100547.06;5074333;28;8940;-82
2021/08/31 15:50:10;;;;;;;;;29.60;29.20;;;;;29.88;47.25;100539.78;5060878;28;8827;-83
2021/08/31 15:53:05;;;;;;;;;28.60;28.40;;;;;29.76;47.85;100541.47;5082078;28;8925;-80
2021/08/31 15:56:01;;;;;;;;;34.00;31.80;;;;;29.68;48.47;100542.22;5074079;28;9687;-82
2021/08/31 15:58:57;;;;;;;;;27.20;26.80;;;;;29.52;47.55;100546.88;5073404;28;8874;-81
2021/08/31 16:01:53;;;;;;;;;29.00;28.60;;;;;29.49;47.88;100547.75;5074386;28;8844;-81
2021/08/31 16:04:58;;;;;;;;;32.00;30.60;;;;;29.47;48.87;100552.34;5074501;28;8847;-82
2021/08/31 16:07:58;;;;;;;;;31.00;29.20;;;;;29.35;48.21;100554.00;5063534;28;8820;-82
2021/08/31 16:10:53;;;;;;;;;46.25;38.75;;;;;29.35;49.45;100549.09;5073828;28;8852;-82
2021/08/31 16:13:49;;;;;;;;;42.80;37.00;;;;;29.24;50.04;100562.94;5056586;28;8834;-82
2021/08/31 16:16:44;;;;;;;;;46.75;40.00;;;;;29.05;49.58;100567.69;5060813;28;8851;-82
2021/08/31 16:19:40;;;;;;;;;36.80;33.40;;;;;29.17;48.19;100573.78;5082498;28;8832;-85
2021/08/31 16:22:41;;;;;;;;;51.25;42.75;;;;;29.18;50.72;100579.03;5072311;28;8828;-84
2021/08/31 16:25:37;;;;;;;;;38.80;34.60;;;;;29.17;49.57;100588.81;5073110;28;8840;-83
2021/08/31 16:28:34;;;;;;;;;32.60;31.20;;;;;28.86;48.96;100585.84;5073008;28;8863;-80
2021/08/31 16:31:32;;;;;;;;;26.60;26.20;;;;;28.89;48.35;100579.22;5083051;28;8828;-83
2021/08/31 16:34:29;;;;;;;;;28.80;28.80;;;;;28.95;49.03;100585.94;5082745;28;8836;-82
2021/08/31 16:37:32;;;;;;;;;30.20;29.20;;;;;28.95;48.51;100588.78;5071391;28;8839;-82
2021/08/31 16:40:28;;;;;;;;;33.80;31.60;;;;;28.87;49.12;100598.00;5082991;28;8836;-82
2021/08/31 16:43:24;;;;;;;;;30.20;29.00;;;;;28.63;48.05;100600.44;5065308;28;8873;-84
2021/08/31 16:46:21;;;;;;;;;27.60;26.80;;;;;28.68;49.08;100608.41;5076931;28;8847;-87
2021/08/31 16:49:16;;;;;;;;;31.80;30.60;;;;;28.61;50.57;100617.19;5080569;28;8950;-84
2021/08/31 16:52:12;;;;;;;;;31.20;29.60;;;;;28.55;49.15;100608.44;5069475;28;8838;-84
2021/08/31 16:55:08;;;;;;;;;40.40;33.40;;;;;28.51;49.37;100614.22;5071627;28;8956;-84
2021/08/31 16:58:03;;;;;;;;;33.60;31.20;;;;;28.46;49.57;100614.81;5054966;28;9055;-83
2021/08/31 17:01:03;;;;;;;;;44.00;37.00;;;;;28.40;48.87;100630.06;5055466;28;8839;-82
2021/08/31 17:03:58;;;;;;;;;17.60;17.60;;;;;28.39;50.65;100649.16;5094208;28;8844;-82
2021/08/31 17:06:54;;;;;;;;;53.75;42.75;;;;;28.46;50.54;100639.63;5071481;28;8868;-83
2021/08/31 17:09:49;;;;;;;;;42.40;35.80;;;;;28.44;52.50;100657.13;5059293;28;8847;-84
2021/08/31 17:12:45;;;;;;;;;49.75;40.25;;;;;28.34;49.58;100657.47;5072738;28;8946;-83
2021/08/31 17:15:41;;;;;;;;;45.50;38.50;;;;;28.26;50.28;100660.50;5079741;28;8899;-82
2021/08/31 17:18:36;;;;;;;;;50.50;39.75;;;;;28.29;49.49;100664.47;5053276;28;9019;-82
2021/08/31 17:21:32;;;;;;;;;44.00;36.25;;;;;28.17;49.57;100673.81;5065770;28;8865;-83
2021/08/31 17:24:32;;;;;;;;;47.50;39.25;;;;;28.17;49.49;100682.34;5050829;28;9628;-85
2021/08/31 17:27:27;;;;;;;;;49.00;39.00;;;;;28.12;51.45;100680.03;5070220;28;8875;-85
2021/08/31 17:30:23;;;;;;;;;44.25;38.25;;;;;28.08;54.22;100693.56;5072969;28;9041;-84
2021/08/31 17:33:19;;;;;;;;;43.40;36.60;;;;;27.98;52.33;100696.25;5082568;28;8938;-84
2021/08/31 17:36:15;;;;;;;;;36.80;33.40;;;;;27.86;50.37;100702.72;5052732;28;8842;-84
2021/08/31 17:39:10;;;;;;;;;36.75;33.00;;;;;27.88;51.96;100703.06;5068699;28;8867;-85
2021/08/31 17:42:06;;;;;;;;;40.25;33.50;;;;;27.89;51.98;100701.81;5085977;28;8843;-85
2021/08/31 17:45:09;;;;;;;;;39.60;34.80;;;;;27.82;52.02;100701.22;5074060;28;8852;-85
2021/08/31 17:48:05;;;;;;;;;43.60;37.00;;;;;27.76;52.20;100723.72;5086859;28;8914;-82
2021/08/31 17:51:05;;;;;;;;;43.00;36.75;;;;;27.56;52.38;100723.81;5070283;28;8844;-87
2021/08/31 17:54:10;;;;;;;;;35.60;32.00;;;;;27.46;51.76;100724.13;5073130;28;8859;-81
2021/08/31 17:57:06;;;;;;;;;41.50;36.00;;;;;27.58;54.88;100724.16;5072311;28;8844;-85
2021/08/31 18:00:02;;;;;;;;;43.00;35.00;;;;;27.50;52.45;100728.44;5071903;28;9654;-83
2021/08/31 18:02:43;;;;;;;;;46.50;35.50;;;;;27.34;52.76;100729.28;5080047;28;8875;-82
2021/08/31 18:05:38;;;;;;;;;46.25;38.25;;;;;27.09;53.22;100724.25;5071530;28;8942;-82
2021/08/31 18:08:06;;;;;;;;;18.00;17.50;;;;;26.68;54.89;100730.47;5071161;28;8953;-82
2021/08/31 18:10:38;;;;;;;;;41.50;34.50;;;;;26.51;56.43;100729.63;5073217;28;8888;-83
2021/08/31 18:13:34;;;;;;;;;48.50;39.00;;;;;26.51;55.64;100723.16;5076617;28;8864;-83
2021/08/31 18:16:30;;;;;;;;;39.25;35.00;;;;;26.55;56.73;100727.53;5053017;28;8842;-83
2021/08/31 18:19:06;;;;;;;;;47.25;39.00;;;;;26.63;56.27;100728.16;5053705;28;8843;-84
2021/08/31 18:21:34;;;;;;;;;49.00;39.75;;;;;26.62;55.43;100723.75;5068832;28;8953;-83
2021/08/31 18:24:29;;;;;;;;;43.25;36.50;;;;;26.64;57.52;100726.13;5078029;28;8847;-84
2021/08/31 18:27:25;;;;;;;;;44.75;38.00;;;;;26.55;58.88;100736.03;5077616;28;8836;-83
2021/08/31 18:30:21;;;;;;;;;40.00;34.75;;;;;26.60;58.01;100732.66;5074744;28;8855;-82
2021/08/31 18:33:21;;;;;;;;;35.25;32.50;;;;;26.52;56.84;100727.59;5087821;28;9544;-84
2021/08/31 18:36:17;;;;;;;;;34.50;31.00;;;;;26.49;56.86;100731.31;5075822;28;8848;-83
2021/08/31 18:39:12;;;;;;;;;36.00;32.00;;;;;26.28;56.66;100726.88;5076678;28;8846;-85
2021/08/31 18:42:11;;;;;;;;;38.00;34.25;;;;;26.24;56.82;100726.97;5076129;28;8852;-84
2021/08/31 18:45:07;;;;;;;;;43.25;35.50;;;;;25.95;57.55;100729.59;5074168;28;8891;-82
2021/08/31 18:48:03;;;;;;;;;41.00;35.75;;;;;25.66;58.85;100728.53;5067029;28;8862;-83
2021/08/31 18:50:59;;;;;;;;;39.25;34.75;;;;;25.65;59.06;100727.72;5091915;28;8832;-83
2021/08/31 18:53:54;;;;;;;;;33.00;31.75;;;;;25.84;58.40;100731.03;5077085;28;8880;-83
2021/08/31 18:56:50;;;;;;;;;35.50;32.00;;;;;26.01;59.96;100718.56;5087947;28;8824;-83
2021/08/31 18:59:46;;;;;;;;;27.40;27.40;;;;;26.15;58.06;100729.59;5059025;28;8854;-84
2021/08/31 19:02:41;;;;;;;;;31.50;28.75;;;;;26.20;58.50;100726.25;5064070;28;8816;-83
2021/08/31 19:05:37;;;;;;;;;31.50;29.75;;;;;26.39;56.97;100723.88;5077311;28;8905;-85
2021/08/31 19:08:36;;;;;;;;;27.60;27.60;;;;;26.18;56.37;100731.56;5069545;28;8995;-84
2021/08/31 19:11:32;;;;;;;;;27.75;27.25;;;;;26.19;57.71;100727.47;5066340;28;9733;-83
2021/08/31 19:14:27;;;;;;;;;27.50;27.50;;;;;26.00;57.90;100733.97;5075769;28;8835;-83
2021/08/31 19:17:23;;;;;;;;;31.75;30.00;;;;;25.93;57.04;100734.13;5075806;28;8871;-82
2021/08/31 19:20:22;;;;;;;;;26.00;25.50;;;;;25.74;57.26;100728.00;5098875;28;8866;-82
2021/08/31 19:23:17;;;;;;;;;29.00;27.75;;;;;25.66;57.22;100729.31;5074134;28;8848;-83
2021/08/31 19:26:17;;;;;;;;;30.25;30.00;;;;;25.29;58.14;100729.59;5075908;28;9510;-82
2021/08/31 19:29:13;;;;;;;;;27.00;26.75;;;;;25.06;60.02;100728.38;5075780;28;8840;-83
2021/08/31 19:32:10;;;;;;;;;25.60;25.60;;;;;25.25;59.43;100729.69;5074829;28;9803;-82
2021/08/31 19:35:06;;;;;;;;;27.25;26.75;;;;;25.28;59.56;100736.50;5075145;28;8852;-83
2021/08/31 19:38:01;;;;;;;;;35.50;31.25;;;;;25.44;60.47;100730.94;5076530;28;9682;-83
2021/08/31 19:40:58;;;;;;;;;26.25;26.25;;;;;25.37;58.89;100733.91;5085916;28;8840;-83
2021/08/31 19:43:53;;;;;;;;;28.25;26.75;;;;;25.29;59.26;100740.94;5056881;28;8921;-83
2021/08/31 19:46:49;;;;;;;;;33.00;30.75;;;;;25.21;58.70;100743.88;5055540;28;8826;-81
2021/08/31 19:49:44;;;;;;;;;34.00;31.25;;;;;25.00;59.64;100740.56;5056384;28;8858;-83
2021/08/31 19:52:40;;;;;;;;;28.75;28.75;;;;;25.34;61.80;100738.41;5087391;28;8951;-82
2021/08/31 19:55:36;;;;;;;;;27.50;25.00;;;;;25.26;60.31;100750.28;5066485;28;8925;-82
2021/08/31 19:58:31;;;;;;;;;26.00;26.00;;;;;24.99;60.78;100753.13;5087086;28;8943;-82
2021/08/31 20:01:27;;;;;;;;;33.00;29.50;;;;;24.65;63.23;100748.38;5074612;28;8836;-82
2021/08/31 20:04:23;;;;;;;;;31.75;30.25;;;;;24.86;63.23;100748.06;5074449;28;8914;-83
2021/08/31 20:07:19;;;;;;;;;31.50;29.75;;;;;25.08;62.09;100756.25;5074055;28;9692;-83
2021/08/31 20:10:15;;;;;;;;;30.25;29.75;;;;;24.73;62.45;100749.88;5073035;28;8824;-82
2021/08/31 20:13:11;;;;;;;;;31.25;28.50;;;;;24.71;62.73;100758.00;5072601;28;8832;-83
2021/08/31 20:16:07;;;;;;;;;32.50;31.25;;;;;24.75;63.55;100760.75;5073169;28;8920;-83
2021/08/31 20:19:03;;;;;;;;;29.25;29.25;;;;;24.56;62.61;100760.22;5065095;28;8909;-83
2021/08/31 20:21:58;;;;;;;;;27.00;26.75;;;;;24.56;62.95;100759.44;5055672;28;8859;-83
2021/08/31 20:24:54;;;;;;;;;28.25;27.00;;;;;24.34;62.34;100765.38;5053068;28;8850;-84
2021/08/31 20:27:50;;;;;;;;;27.50;27.50;;;;;24.26;62.10;100765.84;5068441;28;8867;-83
2021/08/31 20:30:46;;;;;;;;;27.25;27.25;;;;;24.05;63.76;100764.88;5072474;28;8913;-83
2021/08/31 20:33:42;;;;;;;;;27.50;26.75;;;;;23.91;64.25;100759.38;5072246;28;8850;-83
2021/08/31 20:36:37;;;;;;;;;29.00;29.00;;;;;23.89;64.77;100775.16;5084957;28;8941;-82
2021/08/31 20:39:33;;;;;;;;;23.75;23.75;;;;;23.83;63.62;100767.13;5085286;28;8951;-82
2021/08/31 20:42:29;;;;;;;;;29.75;29.25;;;;;23.67;63.22;100772.56;5072688;28;8978;-83
2021/08/31 20:45:24;;;;;;;;;24.75;24.75;;;;;23.68;63.04;100776.19;5074375;28;8959;-83
2021/08/31 20:48:20;;;;;;;;;28.00;28.00;;;;;23.82;63.27;100776.03;5075902;28;8836;-83
2021/08/31 20:51:16;;;;;;;;;30.00;29.75;;;;;23.98;62.76;100772.63;5072001;28;8936;-83
2021/08/31 20:54:12;;;;;;;;;26.75;26.00;;;;;24.22;64.25;100777.19;5074717;28;8836;-83
2021/08/31 20:57:08;;;;;;;;;27.75;27.75;;;;;24.17;60.66;100788.16;5071915;28;8832;-82
2021/08/31 21:00:06;;;;;;;;;22.25;21.75;;;;;24.15;61.12;100782.91;5073106;28;8986;-82
2021/08/31 21:03:02;;;;;;;;;27.00;27.00;;;;;23.90;61.37;100786.03;5073424;28;8848;-82
2021/08/31 21:05:59;;;;;;;;;30.00;29.50;;;;;23.84;61.56;100788.50;5073396;28;8836;-82
2021/08/31 21:08:54;;;;;;;;;29.50;29.00;;;;;23.81;61.47;100785.72;5073054;28;8866;-82
2021/08/31 21:11:50;;;;;;;;;24.50;24.25;;;;;23.72;61.54;100780.59;5074901;28;8824;-81
2021/08/31 21:14:45;;;;;;;;;27.00;27.00;;;;;23.63;61.50;100793.59;5074881;28;8904;-82
2021/08/31 21:17:41;;;;;;;;;28.25;28.25;;;;;23.64;62.09;100798.00;5074573;28;9011;-81
2021/08/31 21:20:38;;;;;;;;;28.00;28.00;;;;;23.59;62.72;100790.75;5072971;28;8856;-82
2021/08/31 21:23:34;;;;;;;;;27.50;27.50;;;;;23.67;62.84;100785.88;5054280;28;8863;-82
2021/08/31 21:26:30;;;;;;;;;27.00;25.25;;;;;23.60;62.69;100795.22;5071748;28;8836;-83
2021/08/31 21:29:25;;;;;;;;;21.75;21.75;;;;;23.50;62.41;100794.06;5073485;28;8835;-83
2021/08/31 21:32:21;;;;;;;;;23.50;23.50;;;;;23.34;63.14;100790.97;5072855;28;8986;-83
2021/08/31 21:35:16;;;;;;;;;22.00;22.00;;;;;23.43;63.05;100798.97;5078101;28;8828;-82
2021/08/31 21:38:12;;;;;;;;;25.75;25.75;;;;;23.66;62.75;100801.22;5073529;28;8848;-82
2021/08/31 21:41:07;;;;;;;;;22.00;21.25;;;;;23.83;62.20;100797.41;5085089;28;8828;-83
2021/08/31 21:44:03;;;;;;;;;20.00;20.00;;;;;23.83;60.47;100800.22;5084148;28;8843;-83
2021/08/31 21:46:59;;;;;;;;;21.50;21.50;;;;;23.96;60.93;100808.97;5076321;28;8835;-83
2021/08/31 21:49:54;;;;;;;;;20.50;20.50;;;;;23.87;60.35;100812.31;5054222;28;8850;-83
2021/08/31 21:52:50;;;;;;;;;20.00;20.00;;;;;23.69;61.25;100806.81;5082815;28;8817;-83
2021/08/31 21:55:46;;;;;;;;;22.00;22.00;;;;;23.75;61.44;100795.88;5073524;28;8836;-83
2021/08/31 21:58:41;;;;;;;;;18.50;18.50;;;;;23.82;62.20;100792.97;5075030;28;8843;-82
2021/08/31 22:01:38;;;;;;;;;18.00;18.00;;;;;23.90;60.65;100790.88;5077161;28;8913;-83
2021/08/31 22:04:34;;;;;;;;;17.75;17.75;;;;;23.75;60.10;100791.03;5076776;28;9614;-82
2021/08/31 22:07:30;;;;;;;;;22.00;22.00;;;;;23.61;60.20;100796.81;5076806;28;8848;-82
2021/08/31 22:10:25;;;;;;;;;20.75;20.75;;;;;23.48;60.14;100807.00;5076673;28;8839;-82
2021/08/31 22:13:21;;;;;;;;;21.25;20.75;;;;;23.28;60.54;100798.28;5056595;28;8846;-82
2021/08/31 22:16:16;;;;;;;;;24.75;24.75;;;;;22.98;60.61;100808.16;5054797;28;8850;-82
2021/08/31 22:19:12;;;;;;;;;19.50;18.25;;;;;23.29;61.16;100802.72;5067239;28;9673;-82
2021/08/31 22:22:07;;;;;;;;;28.00;27.50;;;;;23.19;60.35;100812.06;5056212;28;8839;-82
2021/08/31 22:25:06;;;;;;;;;25.75;25.75;;;;;23.21;62.17;100804.78;5056207;28;8882;-81
2021/08/31 22:28:02;;;;;;;;;31.50;29.25;;;;;23.04;60.38;100819.81;5057594;28;8831;-81
2021/08/31 22:30:58;;;;;;;;;46.50;39.00;;;;;22.86;60.68;100817.13;5057532;28;8935;-81
2021/08/31 22:33:53;;;;;;;;;48.75;40.00;;;;;22.91;60.72;100819.50;5063014;28;8920;-82
2021/08/31 22:36:49;;;;;;;;;44.50;36.50;;;;;23.05;63.31;100817.81;5055971;28;8927;-82
2021/08/31 22:39:44;;;;;;;;;46.75;40.25;;;;;23.34;60.52;100812.75;5069456;28;8832;-82
2021/08/31 22:42:40;;;;;;;;;49.25;39.00;;;;;23.34;61.73;100807.91;5077775;28;8862;-82
2021/08/31 22:45:35;;;;;;;;;57.00;43.50;;;;;23.28;60.66;100806.75;5086932;28;8955;-81
2021/08/31 22:48:32;;;;;;;;;35.00;29.25;;;;;23.35;61.16;100809.50;5076978;28;8836;-81
2021/08/31 22:51:27;;;;;;;;;58.25;44.75;;;;;23.18;59.27;100813.28;5076277;28;8871;-82
2021/08/31 22:54:24;;;;;;;;;57.75;45.25;;;;;23.18;59.73;100816.91;5086575;28;9710;-82
2021/08/31 22:57:19;;;;;;;;;58.33;47.00;;;;;22.92;58.84;100826.72;5075361;28;8971;-82
2021/08/31 23:00:15;;;;;;;;;59.67;45.33;;;;;22.66;59.31;100828.06;5075245;28;9833;-82
2021/08/31 23:03:11;;;;;;;;;62.00;49.67;;;;;22.78;59.91;100832.44;5075470;28;8989;-82
2021/08/31 23:06:06;;;;;;;;;67.33;48.33;;;;;22.72;59.93;100839.72;5076403;28;9007;-82
2021/08/31 23:09:02;;;;;;;;;59.50;46.00;;;;;22.80;61.48;100837.66;5075915;28;9072;-82
2021/08/31 23:11:58;;;;;;;;;60.00;44.75;;;;;23.12;62.16;100838.31;5075606;28;8917;-82
2021/08/31 23:14:53;;;;;;;;;50.75;41.50;;;;;23.08;61.32;100839.53;5075433;28;8883;-82
2021/08/31 23:17:49;;;;;;;;;57.25;45.00;;;;;22.94;61.71;100840.44;5076666;28;8828;-81
2021/08/31 23:20:44;;;;;;;;;57.67;38.00;;;;;22.84;61.89;100841.25;5075192;28;8816;-81
2021/08/31 23:23:40;;;;;;;;;54.25;42.00;;;;;22.78;62.39;100843.72;5074922;28;9081;-81
2021/08/31 23:26:36;;;;;;;;;38.75;35.00;;;;;22.99;62.69;100843.63;5075092;28;8832;-82
2021/08/31 23:29:31;;;;;;;;;52.25;42.75;;;;;22.83;61.63;100856.56;5086292;28;8855;-82
2021/08/31 23:32:27;;;;;;;;;58.00;44.00;;;;;22.93;61.58;100858.59;5074959;28;8824;-81
2021/08/31 23:35:22;;;;;;;;;55.00;42.75;;;;;22.78;61.59;100860.66;5074729;28;8844;-82
2021/08/31 23:38:18;;;;;;;;;54.00;44.00;;;;;22.79;61.77;100856.59;5073168;28;8828;-82
2021/08/31 23:41:14;;;;;;;;;55.75;43.50;;;;;22.73;61.27;100853.41;5075823;28;8856;-82
2021/08/31 23:44:09;;;;;;;;;44.25;36.50;;;;;22.53;61.42;100854.28;5075135;28;8872;-82
2021/08/31 23:47:05;;;;;;;;;40.33;35.67;;;;;22.52;62.44;100859.13;5073270;28;8840;-81
2021/08/31 23:50:01;;;;;;;;;39.25;34.75;;;;;22.57;63.06;100846.63;5087799;27;8813;-82
2021/08/31 23:52:56;;;;;;;;;50.00;39.75;;;;;22.78;62.82;100843.72;5074845;28;8828;-82
2021/08/31 23:55:52;;;;;;;;;45.25;37.50;;;;;22.72;61.51;100846.16;5074580;28;8828;-82
2021/08/31 23:58:48;;;;;;;;;50.25;37.25;;;;;22.67;62.11;100843.75;5074365;28;8855;-82
